createdAt,value
2023-05-02T00:02:21.655Z,11.30
2023-05-02T00:04:48.731Z,11.30
2023-05-02T00:07:15.585Z,11.30
2023-05-02T00:09:42.986Z,11.30
2023-05-02T00:12:09.688Z,11.30
2023-05-02T00:14:36.635Z,11.30
2023-05-02T00:17:03.654Z,11.30
2023-05-02T00:19:30.693Z,11.20
2023-05-02T00:21:57.738Z,11.30
2023-05-02T00:24:24.722Z,11.30
2023-05-02T00:26:51.979Z,11.30
2023-05-02T00:29:19.002Z,11.30
2023-05-02T00:31:45.776Z,11.20
2023-05-02T00:34:13.043Z,11.40
2023-05-02T00:36:39.839Z,11.30
2023-05-02T00:39:06.788Z,11.50
2023-05-02T00:41:33.853Z,11.50
2023-05-02T00:44:01.018Z,11.50
2023-05-02T00:46:28.071Z,11.50
2023-05-02T00:48:55.454Z,11.40
2023-05-02T00:51:23.244Z,11.50
2023-05-02T00:53:51.101Z,11.50
2023-05-02T00:56:18.303Z,11.50
2023-05-02T00:58:47.136Z,11.40
2023-05-02T01:01:36.834Z,11.40
2023-05-02T01:04:26.990Z,11.40
2023-05-02T01:07:24.802Z,11.40
2023-05-02T01:10:10.541Z,11.30
2023-05-02T01:12:47.242Z,11.30
2023-05-02T01:15:22.306Z,11.20
2023-05-02T01:17:52.225Z,11.20
2023-05-02T01:20:24.191Z,11.30
2023-05-02T01:22:52.214Z,11.30
2023-05-02T01:25:43.336Z,11.30
2023-05-02T01:28:25.943Z,11.20
2023-05-02T01:30:56.390Z,11.10
2023-05-02T01:33:25.423Z,11.10
2023-05-02T01:35:53.120Z,11.10
2023-05-02T01:38:22.052Z,11.10
2023-05-02T01:40:51.834Z,11.10
2023-05-02T01:43:20.333Z,10.90
2023-05-02T01:45:50.015Z,10.90
2023-05-02T01:48:19.369Z,10.90
2023-05-02T01:50:48.866Z,10.80
2023-05-02T01:53:16.425Z,10.80
2023-05-02T01:55:46.204Z,10.70
2023-05-02T01:58:15.404Z,10.70
2023-05-02T02:00:45.240Z,10.70
2023-05-02T02:03:14.303Z,10.60
2023-05-02T02:05:41.689Z,10.60
2023-05-02T02:08:09.186Z,10.50
2023-05-02T02:10:40.976Z,10.50
2023-05-02T02:13:17.760Z,10.50
2023-05-02T02:15:48.158Z,10.50
2023-05-02T02:18:26.391Z,10.60
2023-05-02T02:20:54.280Z,10.50
2023-05-02T02:23:25.877Z,10.60
2023-05-02T02:25:54.391Z,10.60
2023-05-02T02:28:21.551Z,10.50
2023-05-02T02:30:48.649Z,10.50
2023-05-02T02:33:15.634Z,10.60
2023-05-02T02:35:47.597Z,10.70
2023-05-02T02:38:33.717Z,10.70
2023-05-02T02:41:14.596Z,10.70
2023-05-02T02:43:58.197Z,10.60
2023-05-02T02:46:44.766Z,10.60
2023-05-02T02:49:21.075Z,10.50
2023-05-02T02:52:16.180Z,10.50
2023-05-02T02:54:51.408Z,10.50
2023-05-02T02:57:28.628Z,10.40
2023-05-02T03:00:07.133Z,10.30
2023-05-02T03:02:35.287Z,10.20
2023-05-02T03:05:03.786Z,10.20
2023-05-02T03:07:31.586Z,10.20
2023-05-02T03:10:04.322Z,10.20
2023-05-02T03:12:33.473Z,10.20
2023-05-02T03:15:41.517Z,10.10
2023-05-02T03:18:09.503Z,10.00
2023-05-02T03:20:36.349Z,10.10
2023-05-02T03:23:03.839Z,10.00
2023-05-02T03:25:30.752Z,10.00
2023-05-02T03:27:58.631Z,10.00
2023-05-02T03:30:25.763Z,10.10
2023-05-02T03:32:52.954Z,10.00
2023-05-02T03:35:20.091Z,10.00
2023-05-02T03:37:49.318Z,10.00
2023-05-02T03:40:16.475Z,10.00
2023-05-02T03:42:44.310Z,10.00
2023-05-02T03:45:22.431Z,10.10
2023-05-02T03:47:51.687Z,10.10
2023-05-02T03:50:19.132Z,10.20
2023-05-02T03:52:48.393Z,10.20
2023-05-02T03:55:19.413Z,10.30
2023-05-02T03:57:47.142Z,10.20
2023-05-02T04:00:14.500Z,10.30
2023-05-02T04:02:49.469Z,10.40
2023-05-02T04:05:20.800Z,10.40
2023-05-02T04:07:49.444Z,10.40
2023-05-02T04:10:18.000Z,10.30
2023-05-02T04:12:52.579Z,10.30
2023-05-02T04:15:20.675Z,10.40
2023-05-02T04:17:48.635Z,10.30
2023-05-02T04:20:17.754Z,10.40
2023-05-02T04:22:50.134Z,10.40
2023-05-02T04:25:17.702Z,10.40
2023-05-02T04:27:45.204Z,10.40
2023-05-02T04:30:15.352Z,10.50
2023-05-02T04:32:48.751Z,10.50
2023-05-02T04:35:15.655Z,10.50
2023-05-02T04:37:42.794Z,10.50
2023-05-02T04:40:11.357Z,10.50
2023-05-02T04:42:38.952Z,10.60
2023-05-02T04:45:21.294Z,10.50
2023-05-02T04:47:49.111Z,10.50
2023-05-02T04:50:16.444Z,10.50
2023-05-02T04:52:43.245Z,10.50
2023-05-02T04:55:10.275Z,10.60
2023-05-02T04:57:39.804Z,10.60
2023-05-02T05:00:09.305Z,10.60
2023-05-02T05:02:36.428Z,10.70
2023-05-02T05:05:04.410Z,10.70
2023-05-02T05:07:31.430Z,10.70
2023-05-02T05:09:59.343Z,10.80
2023-05-02T05:12:30.107Z,10.80
2023-05-02T05:14:57.250Z,10.80
2023-05-02T05:17:26.650Z,10.80
2023-05-02T05:19:54.038Z,10.80
2023-05-02T05:22:21.502Z,10.80
2023-05-02T05:24:53.501Z,10.90
2023-05-02T05:27:21.959Z,10.80
2023-05-02T05:29:49.330Z,10.90
2023-05-02T05:32:17.372Z,10.90
2023-05-02T05:34:45.409Z,10.80
2023-05-02T05:37:13.006Z,10.80
2023-05-02T05:39:40.842Z,10.90
2023-05-02T05:42:09.684Z,10.80
2023-05-02T05:44:36.986Z,10.80
2023-05-02T05:47:04.025Z,10.80
2023-05-02T05:49:39.097Z,10.90
2023-05-02T05:52:09.866Z,10.90
2023-05-02T05:54:36.693Z,10.90
2023-05-02T05:57:03.626Z,11.00
2023-05-02T05:59:30.967Z,11.00
2023-05-02T06:01:59.395Z,11.20
2023-05-02T06:04:26.871Z,11.40
2023-05-02T06:06:54.876Z,11.60
2023-05-02T06:09:21.837Z,11.70
2023-05-02T06:11:49.080Z,11.90
2023-05-02T06:14:16.271Z,12.10
2023-05-02T06:16:45.843Z,12.30
2023-05-02T06:19:13.052Z,12.60
2023-05-02T06:21:39.928Z,12.80
2023-05-02T06:24:07.105Z,12.80
2023-05-02T06:26:33.935Z,12.80
2023-05-02T06:29:01.291Z,12.80
2023-05-02T06:31:28.321Z,12.70
2023-05-02T06:33:55.629Z,12.60
2023-05-02T06:36:22.452Z,12.50
2023-05-02T06:38:49.736Z,12.50
2023-05-02T06:41:18.136Z,12.50
2023-05-02T06:43:45.320Z,12.60
2023-05-02T06:46:12.056Z,12.70
2023-05-02T06:48:39.017Z,12.60
2023-05-02T06:51:05.947Z,12.40
2023-05-02T06:53:33.346Z,12.30
2023-05-02T06:56:00.469Z,12.20
2023-05-02T06:58:27.394Z,12.30
2023-05-02T07:00:54.238Z,12.20
2023-05-02T07:03:20.993Z,12.10
2023-05-02T07:05:47.955Z,12.00
2023-05-02T07:08:14.779Z,11.90
2023-05-02T07:10:41.658Z,11.90
2023-05-02T07:13:08.383Z,12.00
2023-05-02T07:15:35.412Z,11.90
2023-05-02T07:18:02.372Z,11.90
2023-05-02T07:20:29.425Z,12.00
2023-05-02T07:22:56.325Z,12.20
2023-05-02T07:25:23.226Z,12.30
2023-05-02T07:27:50.045Z,12.30
2023-05-02T07:30:17.128Z,12.30
2023-05-02T07:32:45.036Z,12.40
2023-05-02T07:35:12.005Z,12.60
2023-05-02T07:37:38.882Z,12.60
2023-05-02T07:40:07.872Z,12.50
2023-05-02T07:42:36.319Z,12.50
2023-05-02T07:45:03.246Z,12.50
2023-05-02T07:47:30.334Z,12.60
2023-05-02T07:49:57.285Z,12.60
2023-05-02T07:52:24.236Z,12.50
2023-05-02T07:54:51.774Z,12.40
2023-05-02T07:57:18.918Z,12.40
2023-05-02T07:59:46.060Z,12.40
2023-05-02T08:02:13.884Z,12.50
2023-05-02T08:04:41.257Z,12.50
2023-05-02T08:07:08.267Z,12.50
2023-05-02T08:09:35.242Z,12.70
2023-05-02T08:12:05.278Z,12.80
2023-05-02T08:14:32.252Z,13.10
2023-05-02T08:16:59.793Z,13.30
2023-05-02T08:19:27.114Z,13.30
2023-05-02T08:21:54.774Z,13.40
2023-05-02T08:24:22.229Z,13.50
2023-05-02T08:26:48.980Z,13.50
2023-05-02T08:29:16.206Z,13.60
2023-05-02T08:31:43.439Z,13.60
2023-05-02T08:34:10.325Z,13.50
2023-05-02T08:36:37.341Z,13.50
2023-05-02T08:39:04.318Z,13.80
2023-05-02T08:41:31.489Z,13.90
2023-05-02T08:43:59.818Z,13.90
2023-05-02T08:46:27.075Z,14.00
2023-05-02T08:48:55.489Z,14.00
2023-05-02T08:51:24.463Z,14.10
2023-05-02T08:53:52.638Z,14.10
2023-05-02T08:56:19.607Z,14.20
2023-05-02T08:58:46.652Z,14.30
2023-05-02T09:01:16.077Z,14.70
2023-05-02T09:03:47.883Z,14.80
2023-05-02T09:06:19.766Z,14.60
2023-05-02T09:08:54.803Z,14.40
2023-05-02T09:11:22.167Z,14.10
2023-05-02T09:13:51.912Z,14.20
2023-05-02T09:16:23.816Z,14.20
2023-05-02T09:18:53.013Z,14.20
2023-05-02T09:21:25.361Z,14.30
2023-05-02T09:23:56.837Z,14.20
2023-05-02T09:26:32.774Z,14.20
2023-05-02T09:29:04.698Z,14.20
2023-05-02T09:31:54.901Z,14.10
2023-05-02T09:34:23.999Z,14.00
2023-05-02T09:36:54.633Z,13.90
2023-05-02T09:39:26.876Z,14.00
2023-05-02T09:41:54.317Z,13.80
2023-05-02T09:44:23.908Z,13.70
2023-05-02T09:46:53.638Z,13.70
2023-05-02T09:49:42.815Z,13.90
2023-05-02T09:52:17.846Z,14.00
2023-05-02T09:54:46.646Z,14.20
2023-05-02T09:57:13.909Z,14.20
2023-05-02T09:59:41.524Z,14.10
2023-05-02T10:02:11.293Z,13.70
2023-05-02T10:04:39.004Z,13.60
2023-05-02T10:07:07.472Z,13.50
2023-05-02T10:09:36.493Z,13.30
2023-05-02T10:12:08.478Z,13.10
2023-05-02T10:14:41.530Z,13.00
2023-05-02T10:17:14.268Z,13.10
2023-05-02T10:20:07.453Z,13.10
2023-05-02T10:22:36.070Z,12.80
2023-05-02T10:25:04.374Z,12.70
2023-05-02T10:27:34.412Z,12.20
2023-05-02T10:30:04.631Z,11.90
2023-05-02T10:32:34.394Z,11.90
2023-05-02T10:35:06.007Z,11.70
2023-05-02T10:37:36.200Z,11.50
2023-05-02T10:40:04.251Z,11.30
2023-05-02T10:42:31.640Z,11.20
2023-05-02T10:44:59.918Z,11.40
2023-05-02T10:47:27.595Z,11.60
2023-05-02T10:49:57.630Z,11.40
2023-05-02T10:52:34.423Z,11.40
2023-05-02T10:55:21.541Z,11.20
2023-05-02T10:58:00.346Z,11.30
2023-05-02T11:00:32.500Z,11.10
2023-05-02T11:03:00.191Z,10.90
2023-05-02T11:05:28.351Z,11.00
2023-05-02T11:08:19.340Z,10.70
2023-05-02T11:10:47.430Z,10.60
2023-05-02T11:13:14.504Z,10.40
2023-05-02T11:15:41.933Z,10.40
2023-05-02T11:18:11.930Z,10.40
2023-05-02T11:20:45.747Z,10.40
2023-05-02T11:23:22.045Z,10.50
2023-05-02T11:26:00.971Z,10.50
2023-05-02T11:28:37.389Z,10.70
2023-05-02T11:31:06.511Z,10.90
2023-05-02T11:33:34.718Z,11.10
2023-05-02T11:36:01.514Z,11.10
2023-05-02T11:38:38.612Z,11.00
2023-05-02T11:41:05.708Z,11.20
2023-05-02T11:43:32.922Z,11.50
2023-05-02T11:46:01.469Z,11.80
2023-05-02T11:48:28.944Z,11.70
2023-05-02T11:50:58.329Z,11.70
2023-05-02T11:53:28.830Z,11.70
2023-05-02T11:56:01.425Z,11.50
2023-05-02T11:58:32.086Z,11.70
2023-05-02T12:01:00.391Z,11.90
2023-05-02T12:03:32.723Z,11.90
2023-05-02T12:06:29.371Z,11.90
2023-05-02T12:09:11.230Z,11.90
2023-05-02T12:11:38.667Z,12.20
2023-05-02T12:14:06.807Z,12.40
2023-05-02T12:16:34.159Z,12.60
2023-05-02T12:19:01.507Z,13.00
2023-05-02T12:21:34.951Z,13.30
2023-05-02T12:24:02.831Z,13.50
2023-05-02T12:26:31.820Z,13.70
2023-05-02T12:28:59.067Z,13.70
2023-05-02T12:31:28.002Z,13.30
2023-05-02T12:33:57.893Z,13.30
2023-05-02T12:36:25.383Z,14.20
2023-05-02T12:38:54.900Z,15.00
2023-05-02T12:41:36.266Z,15.20
2023-05-02T12:44:03.831Z,14.40
2023-05-02T12:46:32.107Z,14.20
2023-05-02T12:49:08.161Z,14.40
2023-05-02T12:51:36.623Z,15.30
2023-05-02T12:54:04.515Z,14.70
2023-05-02T12:56:39.664Z,14.30
2023-05-02T12:59:07.913Z,14.30
2023-05-02T13:01:35.574Z,14.90
2023-05-02T13:04:03.010Z,16.40
2023-05-02T13:06:30.278Z,16.70
2023-05-02T13:08:57.939Z,15.70
2023-05-02T13:11:25.013Z,15.60
2023-05-02T13:13:51.860Z,16.40
2023-05-02T13:16:19.056Z,15.60
2023-05-02T13:18:47.999Z,15.20
2023-05-02T13:21:16.270Z,15.00
2023-05-02T13:23:44.340Z,14.10
2023-05-02T13:26:11.644Z,13.60
2023-05-02T13:28:38.780Z,13.50
2023-05-02T13:31:06.083Z,13.80
2023-05-02T13:33:33.185Z,13.50
2023-05-02T13:36:00.232Z,13.20
2023-05-02T13:38:27.363Z,12.90
2023-05-02T13:40:54.538Z,12.80
2023-05-02T13:43:21.584Z,13.20
2023-05-02T13:45:49.001Z,13.00
2023-05-02T13:48:16.334Z,13.20
2023-05-02T13:50:43.489Z,13.20
2023-05-02T13:53:12.130Z,13.70
2023-05-02T13:55:39.133Z,13.80
2023-05-02T13:58:07.308Z,13.50
2023-05-02T14:00:34.710Z,13.40
2023-05-02T14:03:01.774Z,13.50
2023-05-02T14:05:29.296Z,13.10
2023-05-02T14:07:56.802Z,13.90
2023-05-02T14:10:23.717Z,14.10
2023-05-02T14:12:53.708Z,13.80
2023-05-02T14:15:22.506Z,13.80
2023-05-02T14:17:51.134Z,13.70
2023-05-02T14:20:20.120Z,13.30
2023-05-02T14:22:48.871Z,13.10
2023-05-02T14:25:20.233Z,14.10
2023-05-02T14:27:48.042Z,14.40
2023-05-02T14:30:15.208Z,14.50
2023-05-02T14:32:42.271Z,14.40
2023-05-02T14:35:09.606Z,13.50
2023-05-02T14:37:36.697Z,13.10
2023-05-02T14:40:04.233Z,13.30
2023-05-02T14:42:31.534Z,14.00
2023-05-02T14:44:59.707Z,13.90
2023-05-02T14:47:28.788Z,13.40
2023-05-02T14:49:55.816Z,12.80
2023-05-02T14:52:23.473Z,12.60
2023-05-02T14:54:50.564Z,12.70
2023-05-02T14:57:17.972Z,13.00
2023-05-02T14:59:45.282Z,13.60
2023-05-02T15:02:12.384Z,14.50
2023-05-02T15:04:39.439Z,14.10
2023-05-02T15:07:06.887Z,14.30
2023-05-02T15:09:33.880Z,15.30
2023-05-02T15:12:00.835Z,15.50
2023-05-02T15:14:27.809Z,16.30
2023-05-02T15:16:54.873Z,16.70
2023-05-02T15:19:23.996Z,17.10
2023-05-02T15:21:53.380Z,16.90
2023-05-02T15:24:20.557Z,15.90
2023-05-02T15:26:47.740Z,15.30
2023-05-02T15:29:15.249Z,15.70
2023-05-02T15:31:42.574Z,15.70
2023-05-02T15:34:10.346Z,16.60
2023-05-02T15:36:37.615Z,15.90
2023-05-02T15:39:05.256Z,15.10
2023-05-02T15:41:32.783Z,14.40
2023-05-02T15:44:00.784Z,15.20
2023-05-02T15:46:28.105Z,15.40
2023-05-02T15:48:55.200Z,14.60
2023-05-02T15:51:22.286Z,14.10
2023-05-02T15:53:52.374Z,14.10
2023-05-02T15:56:21.692Z,14.40
2023-05-02T15:58:48.977Z,14.30
2023-05-02T16:01:16.093Z,13.50
2023-05-02T16:03:43.361Z,12.90
2023-05-02T16:06:10.500Z,12.50
2023-05-02T16:08:37.587Z,13.00
2023-05-02T16:11:04.697Z,14.10
2023-05-02T16:13:32.315Z,14.50
2023-05-02T16:15:59.313Z,14.70
2023-05-02T16:18:29.329Z,15.60
2023-05-02T16:20:57.205Z,16.20
2023-05-02T16:23:25.867Z,16.20
2023-05-02T16:26:01.477Z,15.70
2023-05-02T16:28:28.764Z,15.60
2023-05-02T16:30:56.163Z,15.00
2023-05-02T16:33:23.236Z,14.50
2023-05-02T16:35:59.662Z,14.00
2023-05-02T16:38:26.795Z,13.90
2023-05-02T16:40:53.719Z,13.70
2023-05-02T16:43:21.146Z,13.20
2023-05-02T16:45:48.349Z,13.10
2023-05-02T16:48:16.739Z,12.90
2023-05-02T16:50:44.218Z,12.80
2023-05-02T16:53:11.266Z,12.60
2023-05-02T16:55:38.178Z,12.50
2023-05-02T16:58:05.432Z,12.50
2023-05-02T17:00:32.400Z,12.70
2023-05-02T17:03:00.224Z,13.30
2023-05-02T17:05:28.031Z,12.80
2023-05-02T17:07:55.234Z,12.50
2023-05-02T17:10:22.301Z,12.50
2023-05-02T17:12:49.415Z,12.70
2023-05-02T17:15:16.562Z,13.30
2023-05-02T17:17:44.288Z,13.30
2023-05-02T17:20:11.805Z,12.70
2023-05-02T17:22:39.232Z,12.40
2023-05-02T17:25:06.815Z,12.30
2023-05-02T17:27:34.132Z,12.20
2023-05-02T17:30:01.555Z,12.00
2023-05-02T17:32:29.048Z,11.90
2023-05-02T17:34:58.281Z,11.70
2023-05-02T17:37:26.448Z,12.00
2023-05-02T17:39:53.741Z,12.30
2023-05-02T17:42:20.954Z,12.10
2023-05-02T17:44:48.448Z,11.90
2023-05-02T17:47:18.237Z,11.70
2023-05-02T17:49:47.477Z,12.00
2023-05-02T17:52:14.546Z,11.80
2023-05-02T17:54:42.423Z,11.50
2023-05-02T17:57:10.146Z,11.30
2023-05-02T17:59:41.390Z,11.70
2023-05-02T18:02:10.357Z,11.70
2023-05-02T18:04:37.756Z,11.50
2023-05-02T18:07:06.119Z,11.20
2023-05-02T18:09:33.498Z,10.90
2023-05-02T18:12:03.703Z,10.80
2023-05-02T18:14:30.734Z,10.60
2023-05-02T18:16:58.072Z,10.50
2023-05-02T18:19:25.436Z,10.30
2023-05-02T18:21:53.238Z,10.20
2023-05-02T18:24:20.582Z,10.10
2023-05-02T18:26:49.338Z,10.00
2023-05-02T18:29:16.367Z,9.80
2023-05-02T18:31:43.513Z,9.90
2023-05-02T18:34:10.493Z,9.70
2023-05-02T18:36:37.623Z,9.70
2023-05-02T18:39:04.812Z,9.70
2023-05-02T18:41:32.034Z,9.60
2023-05-02T18:44:00.624Z,9.60
2023-05-02T18:46:27.880Z,9.50
2023-05-02T18:48:54.950Z,9.50
2023-05-02T18:51:22.756Z,9.40
2023-05-02T18:53:51.490Z,9.40
2023-05-02T18:56:18.516Z,9.40
2023-05-02T18:58:46.221Z,9.50
2023-05-02T19:01:17.291Z,9.60
2023-05-02T19:03:44.607Z,9.80
2023-05-02T19:06:13.808Z,9.90
2023-05-02T19:08:41.076Z,9.90
2023-05-02T19:11:09.297Z,9.90
2023-05-02T19:13:37.069Z,9.90
2023-05-02T19:16:04.404Z,10.10
2023-05-02T19:18:32.602Z,10.20
2023-05-02T19:21:00.039Z,10.20
2023-05-02T19:23:27.045Z,10.20
2023-05-02T19:25:53.984Z,10.20
2023-05-02T19:28:22.977Z,10.10
2023-05-02T19:30:49.963Z,10.10
2023-05-02T19:33:17.561Z,10.10
2023-05-02T19:35:44.735Z,10.10
2023-05-02T19:38:11.696Z,10.10
2023-05-02T19:40:38.639Z,10.20
2023-05-02T19:43:05.684Z,10.10
2023-05-02T19:45:32.656Z,10.10
2023-05-02T19:47:59.671Z,10.10
2023-05-02T19:50:29.363Z,10.00
2023-05-02T19:52:56.730Z,10.00
2023-05-02T19:55:23.709Z,10.00
2023-05-02T19:57:51.257Z,9.90
2023-05-02T20:00:18.583Z,9.90
2023-05-02T20:02:45.851Z,9.90
2023-05-02T20:05:13.014Z,9.80
2023-05-02T20:07:39.978Z,9.80
2023-05-02T20:10:07.744Z,9.70
2023-05-02T20:12:34.726Z,9.60
2023-05-02T20:15:02.638Z,9.50
2023-05-02T20:17:29.607Z,9.60
2023-05-02T20:20:02.325Z,9.60
2023-05-02T20:22:29.460Z,9.50
2023-05-02T20:24:56.369Z,9.40
2023-05-02T20:27:23.321Z,9.30
2023-05-02T20:29:52.033Z,9.20
2023-05-02T20:32:19.037Z,9.10
2023-05-02T20:34:46.501Z,9.10
2023-05-02T20:37:13.668Z,9.00
2023-05-02T20:39:40.741Z,9.00
2023-05-02T20:42:08.621Z,8.90
2023-05-02T20:44:36.535Z,8.90
2023-05-02T20:47:04.006Z,8.80
2023-05-02T20:49:34.186Z,8.90
2023-05-02T20:52:06.553Z,8.80
2023-05-02T20:54:33.596Z,8.80
2023-05-02T20:57:00.610Z,8.80
2023-05-02T20:59:27.730Z,8.80
2023-05-02T21:01:54.928Z,8.90
2023-05-02T21:04:22.139Z,8.80
2023-05-02T21:06:49.223Z,8.80
2023-05-02T21:09:19.474Z,8.80
2023-05-02T21:11:46.859Z,8.80
2023-05-02T21:14:13.922Z,8.70
2023-05-02T21:16:41.059Z,8.70
2023-05-02T21:19:08.098Z,8.70
2023-05-02T21:21:35.319Z,8.70
2023-05-02T21:24:03.943Z,8.60
2023-05-02T21:26:33.864Z,8.60
2023-05-02T21:29:00.973Z,8.50
2023-05-02T21:31:28.237Z,8.40
2023-05-02T21:33:55.104Z,8.40
2023-05-02T21:36:22.185Z,8.40
2023-05-02T21:38:49.215Z,8.40
2023-05-02T21:41:16.429Z,8.40
2023-05-02T21:43:43.435Z,8.40
2023-05-02T21:46:13.663Z,8.40
2023-05-02T21:48:41.148Z,8.40
2023-05-02T21:51:11.690Z,8.30
2023-05-02T21:53:38.640Z,8.30
2023-05-02T21:56:07.161Z,8.30
2023-05-02T21:58:37.228Z,8.30
2023-05-02T22:01:04.604Z,8.30
2023-05-02T22:03:33.760Z,8.30
2023-05-02T22:06:06.220Z,8.30
2023-05-02T22:08:33.997Z,8.20
2023-05-02T22:11:04.606Z,8.20
2023-05-02T22:13:31.811Z,8.20
2023-05-02T22:15:58.950Z,8.20
2023-05-02T22:18:25.999Z,8.20
2023-05-02T22:20:54.154Z,8.10
2023-05-02T22:23:21.417Z,8.10
2023-05-02T22:25:48.552Z,8.10
2023-05-02T22:28:15.661Z,8.10
2023-05-02T22:30:45.549Z,8.10
2023-05-02T22:33:14.076Z,8.10
2023-05-02T22:35:41.244Z,8.00
2023-05-02T22:38:11.490Z,8.00
2023-05-02T22:40:38.454Z,8.10
2023-05-02T22:43:05.592Z,8.10
2023-05-02T22:45:32.562Z,8.00
2023-05-02T22:47:59.506Z,8.00
2023-05-02T22:50:27.876Z,8.00
2023-05-02T22:52:59.669Z,8.00
2023-05-02T22:55:28.598Z,8.00
2023-05-02T22:57:55.801Z,7.90
2023-05-02T23:00:23.483Z,8.00
2023-05-02T23:02:50.522Z,8.00
2023-05-02T23:05:17.644Z,8.00
2023-05-02T23:07:44.747Z,8.00
2023-05-02T23:10:11.603Z,8.10
2023-05-02T23:12:39.393Z,8.10
2023-05-02T23:15:07.431Z,8.20
2023-05-02T23:17:39.059Z,8.20
2023-05-02T23:20:06.830Z,8.20
2023-05-02T23:22:36.313Z,8.10
2023-05-02T23:25:03.675Z,8.10
2023-05-02T23:27:30.845Z,8.00
2023-05-02T23:29:57.963Z,8.00
2023-05-02T23:32:26.067Z,8.00
2023-05-02T23:34:53.270Z,8.00
2023-05-02T23:37:21.516Z,8.00
2023-05-02T23:39:48.831Z,7.90
2023-05-02T23:42:16.616Z,7.90
2023-05-02T23:44:43.932Z,7.90
2023-05-02T23:47:11.823Z,7.90
2023-05-02T23:49:39.136Z,7.80
2023-05-02T23:52:06.566Z,7.80
2023-05-02T23:54:34.911Z,7.70
2023-05-02T23:57:03.217Z,7.60
2023-05-02T23:59:30.561Z,7.50
